sensor_id;sensor_type;location;lat;lon;timestamp;pressure;altitude;pressure_sealevel;temperature;humidity
72428;BME280;60419;48.880;18.036;2023-04-27T00:00:03;99253.31;;;5.39;55.69
72428;BME280;60419;48.880;18.036;2023-04-27T00:02:52;99244.22;;;5.50;55.04
72428;BME280;60419;48.880;18.036;2023-04-27T00:05:37;99248.50;;;5.66;55.04
72428;BME280;60419;48.880;18.036;2023-04-27T00:08:23;99254.13;;;5.70;55.06
72428;BME280;60419;48.880;18.036;2023-04-27T00:11:08;99257.59;;;5.34;55.74
72428;BME280;60419;48.880;18.036;2023-04-27T00:13:53;99262.63;;;5.05;57.17
72428;BME280;60419;48.880;18.036;2023-04-27T00:16:40;99258.53;;;4.87;58.29
72428;BME280;60419;48.880;18.036;2023-04-27T00:19:26;99264.81;;;5.24;56.96
72428;BME280;60419;48.880;18.036;2023-04-27T00:22:12;99265.94;;;5.53;55.82
72428;BME280;60419;48.880;18.036;2023-04-27T00:24:58;99263.53;;;5.57;55.85
72428;BME280;60419;48.880;18.036;2023-04-27T00:27:43;99265.09;;;5.43;56.13
72428;BME280;60419;48.880;18.036;2023-04-27T00:30:28;99266.97;;;5.37;56.17
72428;BME280;60419;48.880;18.036;2023-04-27T00:33:15;99259.78;;;5.63;55.58
72428;BME280;60419;48.880;18.036;2023-04-27T00:36:02;99261.09;;;5.55;55.56
72428;BME280;60419;48.880;18.036;2023-04-27T00:38:47;99259.19;;;5.30;56.66
72428;BME280;60419;48.880;18.036;2023-04-27T00:41:36;99266.13;;;5.16;57.02
72428;BME280;60419;48.880;18.036;2023-04-27T00:44:26;99273.63;;;5.19;57.37
72428;BME280;60419;48.880;18.036;2023-04-27T00:47:12;99276.31;;;5.14;57.72
72428;BME280;60419;48.880;18.036;2023-04-27T00:49:57;99263.56;;;4.74;58.19
72428;BME280;60419;48.880;18.036;2023-04-27T00:52:43;99270.56;;;4.32;59.68
72428;BME280;60419;48.880;18.036;2023-04-27T00:55:28;99270.72;;;4.63;58.84
72428;BME280;60419;48.880;18.036;2023-04-27T00:58:14;99273.81;;;3.97;60.32
72428;BME280;60419;48.880;18.036;2023-04-27T01:00:59;99266.59;;;3.97;60.90
72428;BME280;60419;48.880;18.036;2023-04-27T01:03:46;99276.31;;;4.09;60.59
72428;BME280;60419;48.880;18.036;2023-04-27T01:06:31;99285.41;;;3.75;61.77
72428;BME280;60419;48.880;18.036;2023-04-27T01:09:17;99278.88;;;3.93;60.38
72428;BME280;60419;48.880;18.036;2023-04-27T01:12:04;99278.81;;;3.88;60.67
72428;BME280;60419;48.880;18.036;2023-04-27T01:14:49;99280.69;;;4.25;59.76
72428;BME280;60419;48.880;18.036;2023-04-27T01:17:35;99285.66;;;4.54;59.13
72428;BME280;60419;48.880;18.036;2023-04-27T01:20:20;99285.34;;;4.40;59.33
72428;BME280;60419;48.880;18.036;2023-04-27T01:23:06;99291.38;;;4.73;58.95
72428;BME280;60419;48.880;18.036;2023-04-27T01:25:51;99282.78;;;4.70;58.04
72428;BME280;60419;48.880;18.036;2023-04-27T01:28:37;99285.00;;;4.89;57.30
72428;BME280;60419;48.880;18.036;2023-04-27T01:31:22;99294.97;;;4.94;56.95
72428;BME280;60419;48.880;18.036;2023-04-27T01:34:08;99277.81;;;4.89;56.56
72428;BME280;60419;48.880;18.036;2023-04-27T01:36:53;99294.13;;;4.88;57.08
72428;BME280;60419;48.880;18.036;2023-04-27T01:39:39;99295.81;;;5.04;56.01
72428;BME280;60419;48.880;18.036;2023-04-27T01:42:25;99307.56;;;3.76;60.60
72428;BME280;60419;48.880;18.036;2023-04-27T01:45:11;99302.47;;;4.07;59.62
72428;BME280;60419;48.880;18.036;2023-04-27T01:47:56;99295.97;;;4.30;58.79
72428;BME280;60419;48.880;18.036;2023-04-27T01:50:42;99301.41;;;4.45;58.71
72428;BME280;60419;48.880;18.036;2023-04-27T01:53:28;99303.19;;;4.77;57.62
72428;BME280;60419;48.880;18.036;2023-04-27T01:56:14;99304.78;;;4.78;57.73
72428;BME280;60419;48.880;18.036;2023-04-27T01:58:59;99298.13;;;4.85;56.77
72428;BME280;60419;48.880;18.036;2023-04-27T02:01:44;99302.91;;;4.78;57.13
72428;BME280;60419;48.880;18.036;2023-04-27T02:04:30;99295.72;;;4.36;58.60
72428;BME280;60419;48.880;18.036;2023-04-27T02:07:15;99291.50;;;4.45;57.63
72428;BME280;60419;48.880;18.036;2023-04-27T02:10:01;99292.81;;;4.38;57.55
72428;BME280;60419;48.880;18.036;2023-04-27T02:12:47;99301.66;;;4.43;57.04
72428;BME280;60419;48.880;18.036;2023-04-27T02:15:32;99306.44;;;3.99;59.43
72428;BME280;60419;48.880;18.036;2023-04-27T02:18:19;99311.50;;;4.00;60.07
72428;BME280;60419;48.880;18.036;2023-04-27T02:21:08;99305.34;;;4.00;59.70
72428;BME280;60419;48.880;18.036;2023-04-27T02:23:54;99311.59;;;4.11;59.75
72428;BME280;60419;48.880;18.036;2023-04-27T02:26:40;99313.00;;;4.23;59.15
72428;BME280;60419;48.880;18.036;2023-04-27T02:29:29;99321.06;;;3.91;59.84
72428;BME280;60419;48.880;18.036;2023-04-27T02:32:14;99318.81;;;4.10;59.06
72428;BME280;60419;48.880;18.036;2023-04-27T02:35:01;99319.41;;;4.17;59.18
72428;BME280;60419;48.880;18.036;2023-04-27T02:37:46;99318.56;;;4.12;59.00
72428;BME280;60419;48.880;18.036;2023-04-27T02:40:32;99315.84;;;4.07;59.99
72428;BME280;60419;48.880;18.036;2023-04-27T02:43:17;99313.84;;;3.59;61.05
72428;BME280;60419;48.880;18.036;2023-04-27T02:46:03;99319.44;;;3.85;60.68
72428;BME280;60419;48.880;18.036;2023-04-27T02:48:48;99322.25;;;4.05;59.91
72428;BME280;60419;48.880;18.036;2023-04-27T02:51:34;99318.28;;;4.13;60.43
72428;BME280;60419;48.880;18.036;2023-04-27T02:54:19;99315.16;;;4.21;59.70
72428;BME280;60419;48.880;18.036;2023-04-27T02:57:05;99321.00;;;4.18;59.65
72428;BME280;60419;48.880;18.036;2023-04-27T02:59:50;99321.53;;;4.15;59.51
72428;BME280;60419;48.880;18.036;2023-04-27T03:02:35;99319.41;;;4.17;59.75
72428;BME280;60419;48.880;18.036;2023-04-27T03:05:24;99310.06;;;4.20;59.05
72428;BME280;60419;48.880;18.036;2023-04-27T03:08:10;99329.63;;;4.25;58.89
72428;BME280;60419;48.880;18.036;2023-04-27T03:10:55;99341.31;;;4.14;59.87
72428;BME280;60419;48.880;18.036;2023-04-27T03:13:40;99326.16;;;4.25;60.01
72428;BME280;60419;48.880;18.036;2023-04-27T03:16:26;99337.19;;;4.39;60.50
72428;BME280;60419;48.880;18.036;2023-04-27T03:19:11;99333.53;;;4.13;60.31
72428;BME280;60419;48.880;18.036;2023-04-27T03:21:56;99333.63;;;3.64;62.12
72428;BME280;60419;48.880;18.036;2023-04-27T03:24:42;99333.00;;;3.51;62.06
72428;BME280;60419;48.880;18.036;2023-04-27T03:27:27;99340.66;;;4.02;61.11
72428;BME280;60419;48.880;18.036;2023-04-27T03:30:13;99341.94;;;3.94;61.37
72428;BME280;60419;48.880;18.036;2023-04-27T03:32:59;99340.22;;;3.56;61.97
72428;BME280;60419;48.880;18.036;2023-04-27T03:35:53;99346.19;;;3.36;62.91
72428;BME280;60419;48.880;18.036;2023-04-27T03:38:39;99352.44;;;3.25;63.38
72428;BME280;60419;48.880;18.036;2023-04-27T03:41:24;99350.63;;;3.52;62.46
72428;BME280;60419;48.880;18.036;2023-04-27T03:44:10;99351.50;;;3.85;61.20
72428;BME280;60419;48.880;18.036;2023-04-27T03:46:55;99356.41;;;3.71;61.38
72428;BME280;60419;48.880;18.036;2023-04-27T03:49:40;99356.78;;;3.80;61.05
72428;BME280;60419;48.880;18.036;2023-04-27T03:52:26;99354.38;;;3.51;61.93
72428;BME280;60419;48.880;18.036;2023-04-27T03:55:11;99360.56;;;3.84;61.30
72428;BME280;60419;48.880;18.036;2023-04-27T03:57:57;99346.94;;;3.86;60.71
72428;BME280;60419;48.880;18.036;2023-04-27T04:00:43;99362.81;;;3.97;60.63
72428;BME280;60419;48.880;18.036;2023-04-27T04:03:29;99343.44;;;4.12;60.52
72428;BME280;60419;48.880;18.036;2023-04-27T04:06:14;99355.69;;;4.08;60.71
72428;BME280;60419;48.880;18.036;2023-04-27T04:09:00;99361.84;;;3.05;64.78
72428;BME280;60419;48.880;18.036;2023-04-27T04:11:45;99364.84;;;3.58;63.24
72428;BME280;60419;48.880;18.036;2023-04-27T04:14:30;99365.19;;;3.94;62.27
72428;BME280;60419;48.880;18.036;2023-04-27T04:17:16;99366.09;;;3.50;62.73
72428;BME280;60419;48.880;18.036;2023-04-27T04:20:01;99368.66;;;2.96;64.36
72428;BME280;60419;48.880;18.036;2023-04-27T04:22:52;99374.44;;;3.32;63.66
72428;BME280;60419;48.880;18.036;2023-04-27T04:25:37;99371.84;;;3.15;63.59
72428;BME280;60419;48.880;18.036;2023-04-27T04:28:24;99368.13;;;3.65;62.83
72428;BME280;60419;48.880;18.036;2023-04-27T04:31:09;99373.06;;;3.51;62.50
72428;BME280;60419;48.880;18.036;2023-04-27T04:33:55;99370.78;;;3.38;63.29
72428;BME280;60419;48.880;18.036;2023-04-27T04:36:40;99377.22;;;3.42;63.19
72428;BME280;60419;48.880;18.036;2023-04-27T04:39:32;99373.91;;;3.57;63.09
72428;BME280;60419;48.880;18.036;2023-04-27T04:42:18;99374.84;;;4.00;61.82
72428;BME280;60419;48.880;18.036;2023-04-27T04:45:03;99375.22;;;3.81;62.05
72428;BME280;60419;48.880;18.036;2023-04-27T04:47:49;99388.84;;;3.80;62.80
72428;BME280;60419;48.880;18.036;2023-04-27T04:50:34;99381.28;;;3.99;62.15
72428;BME280;60419;48.880;18.036;2023-04-27T04:53:20;99383.66;;;3.95;62.49
72428;BME280;60419;48.880;18.036;2023-04-27T04:56:12;99384.78;;;4.37;61.82
72428;BME280;60419;48.880;18.036;2023-04-27T04:58:58;99388.50;;;4.31;61.73
72428;BME280;60419;48.880;18.036;2023-04-27T05:01:43;99377.94;;;4.51;61.31
72428;BME280;60419;48.880;18.036;2023-04-27T05:04:28;99390.66;;;4.34;61.56
72428;BME280;60419;48.880;18.036;2023-04-27T05:07:14;99389.00;;;4.65;60.70
72428;BME280;60419;48.880;18.036;2023-04-27T05:09:59;99392.91;;;4.89;59.87
72428;BME280;60419;48.880;18.036;2023-04-27T05:12:45;99395.31;;;4.91;60.41
72428;BME280;60419;48.880;18.036;2023-04-27T05:15:30;99389.56;;;4.67;62.19
72428;BME280;60419;48.880;18.036;2023-04-27T05:18:15;99393.69;;;4.85;64.28
72428;BME280;60419;48.880;18.036;2023-04-27T05:21:01;99398.00;;;4.91;61.47
72428;BME280;60419;48.880;18.036;2023-04-27T05:23:46;99391.69;;;6.06;66.68
72428;BME280;60419;48.880;18.036;2023-04-27T05:26:32;99398.97;;;6.26;60.66
72428;BME280;60419;48.880;18.036;2023-04-27T05:29:17;99399.50;;;6.54;57.08
72428;BME280;60419;48.880;18.036;2023-04-27T05:32:03;99394.94;;;6.13;58.84
72428;BME280;60419;48.880;18.036;2023-04-27T05:34:48;99394.13;;;6.08;57.91
72428;BME280;60419;48.880;18.036;2023-04-27T05:37:34;99393.03;;;6.50;57.53
72428;BME280;60419;48.880;18.036;2023-04-27T05:40:19;99369.19;;;6.33;56.23
72428;BME280;60419;48.880;18.036;2023-04-27T05:43:04;99399.13;;;7.01;56.04
72428;BME280;60419;48.880;18.036;2023-04-27T05:45:50;99399.72;;;6.88;54.76
72428;BME280;60419;48.880;18.036;2023-04-27T05:48:36;99398.34;;;7.01;55.19
72428;BME280;60419;48.880;18.036;2023-04-27T05:51:21;99400.88;;;7.37;53.92
72428;BME280;60419;48.880;18.036;2023-04-27T05:54:07;99402.34;;;7.08;54.02
72428;BME280;60419;48.880;18.036;2023-04-27T05:56:52;99411.78;;;6.91;54.24
72428;BME280;60419;48.880;18.036;2023-04-27T05:59:38;99408.59;;;6.63;56.85
72428;BME280;60419;48.880;18.036;2023-04-27T06:02:23;99412.63;;;6.55;57.96
72428;BME280;60419;48.880;18.036;2023-04-27T06:05:08;99407.22;;;5.84;59.75
72428;BME280;60419;48.880;18.036;2023-04-27T06:07:54;99415.88;;;6.47;57.57
72428;BME280;60419;48.880;18.036;2023-04-27T06:10:39;99418.00;;;6.71;57.09
72428;BME280;60419;48.880;18.036;2023-04-27T06:13:25;99417.41;;;6.94;57.25
72428;BME280;60419;48.880;18.036;2023-04-27T06:16:11;99415.50;;;7.10;56.57
72428;BME280;60419;48.880;18.036;2023-04-27T06:18:56;99420.56;;;7.27;56.57
72428;BME280;60419;48.880;18.036;2023-04-27T06:21:41;99422.97;;;7.88;52.78
72428;BME280;60419;48.880;18.036;2023-04-27T06:24:27;99424.41;;;7.70;53.44
72428;BME280;60419;48.880;18.036;2023-04-27T06:27:13;99426.38;;;7.54;52.57
72428;BME280;60419;48.880;18.036;2023-04-27T06:29:58;99425.13;;;7.86;51.61
72428;BME280;60419;48.880;18.036;2023-04-27T06:32:43;99426.69;;;7.97;52.92
72428;BME280;60419;48.880;18.036;2023-04-27T06:35:29;99431.41;;;7.71;52.93
72428;BME280;60419;48.880;18.036;2023-04-27T06:38:14;99427.28;;;7.24;55.30
72428;BME280;60419;48.880;18.036;2023-04-27T06:41:00;99431.78;;;7.34;55.11
72428;BME280;60419;48.880;18.036;2023-04-27T06:43:47;99415.25;;;7.76;53.93
72428;BME280;60419;48.880;18.036;2023-04-27T06:46:32;99432.59;;;8.00;54.77
72428;BME280;60419;48.880;18.036;2023-04-27T06:49:18;99437.34;;;7.73;53.81
72428;BME280;60419;48.880;18.036;2023-04-27T06:52:04;99432.72;;;7.79;53.55
72428;BME280;60419;48.880;18.036;2023-04-27T06:54:49;99429.78;;;7.70;54.38
72428;BME280;60419;48.880;18.036;2023-04-27T06:57:35;99432.13;;;7.87;53.92
72428;BME280;60419;48.880;18.036;2023-04-27T07:00:20;99442.91;;;8.27;53.48
72428;BME280;60419;48.880;18.036;2023-04-27T07:03:06;99430.63;;;8.15;53.67
72428;BME280;60419;48.880;18.036;2023-04-27T07:05:51;99441.88;;;8.86;51.93
72428;BME280;60419;48.880;18.036;2023-04-27T07:08:36;99433.59;;;9.06;51.31
72428;BME280;60419;48.880;18.036;2023-04-27T07:11:22;99431.44;;;9.57;49.79
72428;BME280;60419;48.880;18.036;2023-04-27T07:14:07;99431.13;;;9.10;51.29
72428;BME280;60419;48.880;18.036;2023-04-27T07:16:53;99438.53;;;8.99;49.96
72428;BME280;60419;48.880;18.036;2023-04-27T07:19:39;99437.88;;;8.15;52.20
72428;BME280;60419;48.880;18.036;2023-04-27T07:22:25;99428.31;;;8.33;52.09
72428;BME280;60419;48.880;18.036;2023-04-27T07:25:11;99414.59;;;7.95;52.53
72428;BME280;60419;48.880;18.036;2023-04-27T07:27:56;99429.25;;;8.18;51.86
72428;BME280;60419;48.880;18.036;2023-04-27T07:30:43;99432.72;;;8.58;50.63
72428;BME280;60419;48.880;18.036;2023-04-27T07:33:29;99426.03;;;9.08;49.72
72428;BME280;60419;48.880;18.036;2023-04-27T07:36:15;99429.31;;;9.54;48.74
72428;BME280;60419;48.880;18.036;2023-04-27T07:39:00;99422.63;;;9.70;49.10
72428;BME280;60419;48.880;18.036;2023-04-27T07:41:46;99430.94;;;10.30;47.32
72428;BME280;60419;48.880;18.036;2023-04-27T07:44:32;99424.78;;;10.11;44.77
72428;BME280;60419;48.880;18.036;2023-04-27T07:47:17;99424.31;;;10.04;45.42
72428;BME280;60419;48.880;18.036;2023-04-27T07:50:04;99415.69;;;10.39;44.97
72428;BME280;60419;48.880;18.036;2023-04-27T07:52:51;99421.88;;;10.73;44.07
72428;BME280;60419;48.880;18.036;2023-04-27T07:55:36;99430.66;;;10.32;42.04
72428;BME280;60419;48.880;18.036;2023-04-27T07:58:22;99424.97;;;9.77;42.69
72428;BME280;60419;48.880;18.036;2023-04-27T08:01:08;99421.03;;;9.88;40.35
72428;BME280;60419;48.880;18.036;2023-04-27T08:03:53;99415.34;;;9.27;40.74
72428;BME280;60419;48.880;18.036;2023-04-27T08:06:38;99420.66;;;9.76;39.59
72428;BME280;60419;48.880;18.036;2023-04-27T08:09:24;99419.44;;;9.20;41.11
72428;BME280;60419;48.880;18.036;2023-04-27T08:12:09;99404.81;;;9.26;39.89
72428;BME280;60419;48.880;18.036;2023-04-27T08:14:54;99418.41;;;8.62;42.46
72428;BME280;60419;48.880;18.036;2023-04-27T08:17:40;99420.00;;;9.65;41.22
72428;BME280;60419;48.880;18.036;2023-04-27T08:20:25;99411.50;;;9.95;39.76
72428;BME280;60419;48.880;18.036;2023-04-27T08:23:11;99406.72;;;10.91;34.55
72428;BME280;60419;48.880;18.036;2023-04-27T08:25:56;99412.72;;;10.88;36.35
72428;BME280;60419;48.880;18.036;2023-04-27T08:28:41;99396.81;;;11.00;36.32
72428;BME280;60419;48.880;18.036;2023-04-27T08:31:27;99390.63;;;11.41;35.19
72428;BME280;60419;48.880;18.036;2023-04-27T08:34:13;99403.50;;;10.89;37.02
72428;BME280;60419;48.880;18.036;2023-04-27T08:36:58;99385.81;;;9.60;38.57
72428;BME280;60419;48.880;18.036;2023-04-27T08:39:46;99408.53;;;9.35;39.36
72428;BME280;60419;48.880;18.036;2023-04-27T08:42:31;99407.38;;;9.60;39.64
72428;BME280;60419;48.880;18.036;2023-04-27T08:45:17;99407.97;;;9.76;38.11
72428;BME280;60419;48.880;18.036;2023-04-27T08:48:03;99404.19;;;9.77;37.74
72428;BME280;60419;48.880;18.036;2023-04-27T08:50:49;99414.53;;;9.22;38.23
72428;BME280;60419;48.880;18.036;2023-04-27T08:53:35;99409.72;;;9.48;37.74
72428;BME280;60419;48.880;18.036;2023-04-27T08:56:22;99416.94;;;10.09;37.06
72428;BME280;60419;48.880;18.036;2023-04-27T08:59:13;99413.97;;;10.44;36.92
72428;BME280;60419;48.880;18.036;2023-04-27T09:01:59;99403.16;;;10.30;35.96
72428;BME280;60419;48.880;18.036;2023-04-27T09:04:44;99414.19;;;9.95;36.92
72428;BME280;60419;48.880;18.036;2023-04-27T09:07:30;99414.13;;;10.52;37.25
72428;BME280;60419;48.880;18.036;2023-04-27T09:10:15;99408.59;;;10.44;34.87
72428;BME280;60419;48.880;18.036;2023-04-27T09:13:01;99406.94;;;10.94;33.27
72428;BME280;60419;48.880;18.036;2023-04-27T09:15:50;99395.03;;;11.37;33.83
72428;BME280;60419;48.880;18.036;2023-04-27T09:18:40;99398.72;;;11.27;34.10
72428;BME280;60419;48.880;18.036;2023-04-27T09:21:28;99405.94;;;11.59;33.92
72428;BME280;60419;48.880;18.036;2023-04-27T09:24:15;99404.63;;;11.43;32.24
72428;BME280;60419;48.880;18.036;2023-04-27T09:27:00;99402.38;;;9.72;34.95
72428;BME280;60419;48.880;18.036;2023-04-27T09:29:47;99402.91;;;10.45;34.20
72428;BME280;60419;48.880;18.036;2023-04-27T09:32:32;99408.56;;;9.92;35.56
72428;BME280;60419;48.880;18.036;2023-04-27T09:35:23;99414.34;;;9.85;35.23
72428;BME280;60419;48.880;18.036;2023-04-27T09:38:08;99414.91;;;10.01;34.58
72428;BME280;60419;48.880;18.036;2023-04-27T09:40:54;99390.97;;;9.57;35.30
72428;BME280;60419;48.880;18.036;2023-04-27T09:43:42;99433.75;;;9.63;34.53
72428;BME280;60419;48.880;18.036;2023-04-27T09:46:32;99413.91;;;10.49;33.34
72428;BME280;60419;48.880;18.036;2023-04-27T09:49:17;99415.84;;;10.62;33.15
72428;BME280;60419;48.880;18.036;2023-04-27T09:52:04;99401.19;;;10.82;33.61
72428;BME280;60419;48.880;18.036;2023-04-27T09:54:49;99402.91;;;10.45;33.51
72428;BME280;60419;48.880;18.036;2023-04-27T10:03:42;99392.47;;;10.38;33.29
72428;BME280;60419;48.880;18.036;2023-04-27T10:09:48;99395.03;;;11.23;32.29
72428;BME280;60419;48.880;18.036;2023-04-27T10:12:35;99373.56;;;10.85;32.71
72428;BME280;60419;48.880;18.036;2023-04-27T10:15:25;99385.31;;;10.61;32.19
72428;BME280;60419;48.880;18.036;2023-04-27T10:18:12;99402.09;;;10.45;33.08
72428;BME280;60419;48.880;18.036;2023-04-27T10:21:09;99391.16;;;10.03;33.12
72428;BME280;60419;48.880;18.036;2023-04-27T10:23:54;99390.03;;;10.56;32.13
72428;BME280;60419;48.880;18.036;2023-04-27T10:26:45;99387.13;;;10.33;32.47
72428;BME280;60419;48.880;18.036;2023-04-27T10:29:38;99380.13;;;10.65;29.98
72428;BME280;60419;48.880;18.036;2023-04-27T10:32:25;99372.59;;;11.09;29.35
72428;BME280;60419;48.880;18.036;2023-04-27T10:35:11;99372.50;;;11.00;29.41
72428;BME280;60419;48.880;18.036;2023-04-27T10:38:05;99359.28;;;11.12;28.52
72428;BME280;60419;48.880;18.036;2023-04-27T10:40:58;99361.50;;;11.60;28.81
72428;BME280;60419;48.880;18.036;2023-04-27T10:43:47;99368.63;;;11.92;28.39
72428;BME280;60419;48.880;18.036;2023-04-27T10:46:34;99372.19;;;11.29;28.96
72428;BME280;60419;48.880;18.036;2023-04-27T10:49:20;99346.84;;;11.39;29.57
72428;BME280;60419;48.880;18.036;2023-04-27T10:52:06;99360.75;;;10.44;30.72
72428;BME280;60419;48.880;18.036;2023-04-27T10:54:52;99364.41;;;10.21;30.97
72428;BME280;60419;48.880;18.036;2023-04-27T10:57:45;99344.31;;;9.94;31.38
72428;BME280;60419;48.880;18.036;2023-04-27T11:00:38;99375.78;;;10.17;30.91
72428;BME280;60419;48.880;18.036;2023-04-27T11:03:28;99373.31;;;10.68;30.47
72428;BME280;60419;48.880;18.036;2023-04-27T11:06:13;99371.75;;;10.34;30.54
72428;BME280;60419;48.880;18.036;2023-04-27T11:09:00;99363.34;;;10.82;30.00
72428;BME280;60419;48.880;18.036;2023-04-27T11:11:45;99366.66;;;11.34;29.46
72428;BME280;60419;48.880;18.036;2023-04-27T11:14:33;99341.81;;;11.32;28.88
72428;BME280;60419;48.880;18.036;2023-04-27T11:17:28;99363.53;;;10.86;30.05
72428;BME280;60419;48.880;18.036;2023-04-27T11:20:13;99362.03;;;10.33;30.45
72428;BME280;60419;48.880;18.036;2023-04-27T11:23:00;99350.78;;;10.45;30.87
72428;BME280;60419;48.880;18.036;2023-04-27T11:25:46;99373.53;;;10.71;30.12
72428;BME280;60419;48.880;18.036;2023-04-27T11:28:31;99369.56;;;10.96;30.11
72428;BME280;60419;48.880;18.036;2023-04-27T11:31:17;99356.84;;;11.24;30.55
72428;BME280;60419;48.880;18.036;2023-04-27T11:34:03;99362.88;;;11.21;29.96
72428;BME280;60419;48.880;18.036;2023-04-27T11:37:02;99357.06;;;11.00;29.86
72428;BME280;60419;48.880;18.036;2023-04-27T11:39:49;99346.47;;;11.18;29.56
72428;BME280;60419;48.880;18.036;2023-04-27T11:42:35;99367.94;;;11.51;29.52
72428;BME280;60419;48.880;18.036;2023-04-27T11:45:25;99357.91;;;11.87;29.19
72428;BME280;60419;48.880;18.036;2023-04-27T11:48:15;99351.31;;;12.39;29.48
72428;BME280;60419;48.880;18.036;2023-04-27T11:51:00;99374.28;;;11.82;29.43
72428;BME280;60419;48.880;18.036;2023-04-27T11:53:46;99364.03;;;11.93;29.75
72428;BME280;60419;48.880;18.036;2023-04-27T11:56:40;99367.41;;;12.21;29.26
72428;BME280;60419;48.880;18.036;2023-04-27T11:59:25;99368.81;;;12.19;29.48
72428;BME280;60419;48.880;18.036;2023-04-27T12:02:12;99362.50;;;12.23;29.35
72428;BME280;60419;48.880;18.036;2023-04-27T12:04:58;99360.22;;;12.39;29.24
72428;BME280;60419;48.880;18.036;2023-04-27T12:07:43;99363.47;;;12.50;29.57
72428;BME280;60419;48.880;18.036;2023-04-27T12:10:29;99351.44;;;12.96;29.05
72428;BME280;60419;48.880;18.036;2023-04-27T12:13:15;99349.66;;;12.06;29.77
72428;BME280;60419;48.880;18.036;2023-04-27T12:16:00;99344.97;;;11.25;31.51
72428;BME280;60419;48.880;18.036;2023-04-27T12:18:46;99354.41;;;11.64;31.18
72428;BME280;60419;48.880;18.036;2023-04-27T12:21:31;99354.31;;;10.73;32.29
72428;BME280;60419;48.880;18.036;2023-04-27T12:24:18;99351.97;;;11.13;32.38
72428;BME280;60419;48.880;18.036;2023-04-27T12:27:04;99352.72;;;11.91;31.96
72428;BME280;60419;48.880;18.036;2023-04-27T12:29:49;99358.56;;;12.07;31.80
72428;BME280;60419;48.880;18.036;2023-04-27T12:32:35;99356.69;;;12.30;31.95
72428;BME280;60419;48.880;18.036;2023-04-27T12:35:20;99347.97;;;12.42;30.64
72428;BME280;60419;48.880;18.036;2023-04-27T12:38:05;99351.00;;;13.03;30.21
72428;BME280;60419;48.880;18.036;2023-04-27T12:40:51;99344.72;;;13.59;30.18
72428;BME280;60419;48.880;18.036;2023-04-27T12:43:36;99346.44;;;12.49;29.55
72428;BME280;60419;48.880;18.036;2023-04-27T12:46:22;99334.63;;;11.64;30.90
72428;BME280;60419;48.880;18.036;2023-04-27T12:49:08;99347.75;;;11.20;31.17
72428;BME280;60419;48.880;18.036;2023-04-27T12:51:54;99347.75;;;11.20;32.00
72428;BME280;60419;48.880;18.036;2023-04-27T12:54:41;99330.84;;;11.65;31.11
72428;BME280;60419;48.880;18.036;2023-04-27T12:57:26;99333.03;;;11.26;32.18
72428;BME280;60419;48.880;18.036;2023-04-27T13:00:12;99336.94;;;10.93;32.76
72428;BME280;60419;48.880;18.036;2023-04-27T13:02:58;99331.75;;;11.10;32.06
72428;BME280;60419;48.880;18.036;2023-04-27T13:05:43;99264.56;;;11.03;31.90
72428;BME280;60419;48.880;18.036;2023-04-27T13:08:29;99339.91;;;11.46;30.98
72428;BME280;60419;48.880;18.036;2023-04-27T13:11:15;99332.88;;;11.82;31.26
72428;BME280;60419;48.880;18.036;2023-04-27T13:14:01;99339.63;;;12.29;30.70
72428;BME280;60419;48.880;18.036;2023-04-27T13:16:46;99344.38;;;11.87;30.30
72428;BME280;60419;48.880;18.036;2023-04-27T13:19:32;99346.31;;;12.32;30.24
72428;BME280;60419;48.880;18.036;2023-04-27T13:22:17;99336.25;;;12.55;30.08
72428;BME280;60419;48.880;18.036;2023-04-27T13:25:03;99335.31;;;13.57;28.91
72428;BME280;60419;48.880;18.036;2023-04-27T13:27:50;99334.72;;;13.03;28.95
72428;BME280;60419;48.880;18.036;2023-04-27T13:30:35;99335.69;;;11.40;31.29
72428;BME280;60419;48.880;18.036;2023-04-27T13:33:21;99352.44;;;11.79;31.50
72428;BME280;60419;48.880;18.036;2023-04-27T13:36:07;99338.84;;;11.92;31.12
72428;BME280;60419;48.880;18.036;2023-04-27T13:38:53;99352.03;;;11.85;31.58
72428;BME280;60419;48.880;18.036;2023-04-27T13:41:38;99340.31;;;11.76;31.29
72428;BME280;60419;48.880;18.036;2023-04-27T13:44:24;99311.63;;;11.53;31.80
72428;BME280;60419;48.880;18.036;2023-04-27T13:47:09;99347.47;;;11.95;31.11
72428;BME280;60419;48.880;18.036;2023-04-27T13:49:55;99354.06;;;12.02;31.84
72428;BME280;60419;48.880;18.036;2023-04-27T13:52:40;99351.28;;;12.30;31.32
72428;BME280;60419;48.880;18.036;2023-04-27T13:55:26;99345.94;;;12.78;31.03
72428;BME280;60419;48.880;18.036;2023-04-27T13:58:11;99330.25;;;13.15;29.41
72428;BME280;60419;48.880;18.036;2023-04-27T14:00:57;99324.94;;;12.08;30.62
72428;BME280;60419;48.880;18.036;2023-04-27T14:03:43;99332.84;;;12.41;30.46
72428;BME280;60419;48.880;18.036;2023-04-27T14:06:28;99338.97;;;11.65;31.91
72428;BME280;60419;48.880;18.036;2023-04-27T14:09:14;99321.69;;;11.97;31.21
72428;BME280;60419;48.880;18.036;2023-04-27T14:12:00;99353.75;;;12.49;30.52
72428;BME280;60419;48.880;18.036;2023-04-27T14:14:45;99330.38;;;11.85;30.73
72428;BME280;60419;48.880;18.036;2023-04-27T14:17:30;99351.47;;;11.97;30.76
72428;BME280;60419;48.880;18.036;2023-04-27T14:20:16;99332.94;;;12.13;30.91
72428;BME280;60419;48.880;18.036;2023-04-27T14:23:03;99343.66;;;13.12;30.23
72428;BME280;60419;48.880;18.036;2023-04-27T14:25:49;99341.66;;;13.43;29.05
72428;BME280;60419;48.880;18.036;2023-04-27T14:28:34;99341.88;;;13.91;28.81
72428;BME280;60419;48.880;18.036;2023-04-27T14:31:20;99334.75;;;14.50;28.33
72428;BME280;60419;48.880;18.036;2023-04-27T14:34:07;99339.44;;;14.24;28.17
72428;BME280;60419;48.880;18.036;2023-04-27T14:36:52;99335.47;;;14.77;27.14
72428;BME280;60419;48.880;18.036;2023-04-27T14:39:38;99331.81;;;13.65;28.46
72428;BME280;60419;48.880;18.036;2023-04-27T14:42:23;99336.06;;;12.83;30.36